香港 の空港の天気 - METARとTAF

香港国際空港 ( VHHH / HKG ) - 香港 赤リョウ角
飛行場実況気象(Metar)
観測時間09/28 06:30 HKT (09/27 22:30 UTC)
風向・風速東 7m/s
視程10km以上
天気現象
少しの雲 雲底高度 610m
気温29℃
湿度66%
気圧1007hPa
METARVHHH 272230Z 08013KT 9999 FEW020 29/22 Q1007 NOSIG
過去の天気等 Google飛行場航空写真 Wunderground天気予報

過去48時間のMETAR

飛行場予報(TAF)
発表時間: 9/28 04:00 HKT (9/27 20:00 UTC)
予報対象時間: 28日5時 HKT ~ 29日11時 HKT
風向・風速東 8m/s
視程10km以上
少しの雲 雲底高度 760m
28日5時 HKT ~ 28日12時 HKT に一時的に
風向・風速東 10m/s 瞬間風速 15m/s
視程4000m
天気現象しゅう雨
少しの積乱雲 雲底高度 300m
全天の4割程度の雲 雲底高度 760m
28日12時 HKT ~ 28日16時 HKT に一時的に
風向・風速東 8m/s 瞬間風速 13m/s
視程4000m
天気現象しゅう雨
TAF VHHH 272000Z 2721/2903 08015KT 9999 FEW025 TX32/2806Z TN28/2722Z TN28/2822Z
TEMPO 2721/2804 08020G30KT 4000 SHRA FEW010CB SCT025
TEMPO 2804/2808 08015G25KT 4000 SHRA